KDBN/DBN METAR and TAF weather

Enter ICAO airport designator
Station Type Date Time Source
KDBN METAR 2019/12/10 03:15 UTC NOAA

KDBN 100315Z AUTO 21004KT 10SM CLR 17/17 A3007 RMK AO2


Station Type Date Time Source
KDBN Decoded METAR 2019/12/10 03:15 UTC NOAA

Dublin, W H 'Bud' Barron Airport, GA, United States (KDBN) 32-33-52N 082-59-06W
Dec 09, 2019 - 10:15 PM EST / 2019.12.10 0315 UTC
Wind: from the SSW (210 degrees) at 5 MPH (4 KT):0
Visibility: 10 mile(s):0
Sky conditions: clear
Temperature: 62 F (17 C)
Dew Point: 62 F (17 C)
Relative Humidity: 100%
Pressure (altimeter): 30.07 in. Hg (1018 hPa)
ob: KDBN 100315Z AUTO 21004KT 10SM CLR 17/17 A3007 RMK AO2
cycle: 3

Station Type Date Time Source
KDBN TAF UTC NOAA

Error!

Example: see airport list